Time;durP1;ratioP1;P1;durP2;ratioP2;P2;SDS_P1;SDS_P2;PMS_P1;PMS_P2;Temp;Humidity;BMP_temperature;BMP_pressure;BME280_temperature;BME280_humidity;BME280_pressure;Samples;Min_cycle;Max_cycle;Signal;HPM_P1;HPM_P2
2023/12/07 00:01:54;;;;;;;1.77;1.60;;;6.30;99.90;;;;;;7401692;19;20167;-76
2023/12/07 00:04:19;;;;;;;1.50;1.23;;;6.30;99.90;;;;;;7406735;19;20130;-76
2023/12/07 00:06:45;;;;;;;1.93;1.57;;;6.20;99.90;;;;;;7401033;19;20500;-77
2023/12/07 00:09:11;;;;;;;2.27;1.33;;;6.10;99.90;;;;;;7402116;19;20388;-76
2023/12/07 00:11:37;;;;;;;1.10;1.00;;;6.10;99.90;;;;;;7403080;19;20134;-76
2023/12/07 00:14:02;;;;;;;1.00;0.90;;;6.10;99.90;;;;;;7405836;19;20142;-75
2023/12/07 00:16:28;;;;;;;1.30;1.13;;;6.10;99.90;;;;;;7403969;19;20163;-76
2023/12/07 00:18:54;;;;;;;1.00;0.90;;;6.10;99.90;;;;;;7401886;19;20128;-75
2023/12/07 00:21:19;;;;;;;1.23;1.10;;;6.20;99.90;;;;;;7401992;19;20490;-76
2023/12/07 00:23:45;;;;;;;1.23;1.13;;;6.20;99.90;;;;;;7402813;19;20158;-76
2023/12/07 00:26:11;;;;;;;1.33;1.23;;;6.40;99.90;;;;;;7401784;19;20126;-76
2023/12/07 00:28:37;;;;;;;1.53;1.10;;;6.30;99.90;;;;;;7397309;19;20143;-76
2023/12/07 00:31:03;;;;;;;2.20;1.33;;;6.30;99.90;;;;;;7393515;19;20122;-75
2023/12/07 00:33:28;;;;;;;0.90;0.87;;;6.40;99.90;;;;;;7395567;19;20142;-76
2023/12/07 00:35:54;;;;;;;1.63;0.97;;;6.30;99.90;;;;;;7396491;19;20133;-77
2023/12/07 00:38:20;;;;;;;1.30;1.20;;;6.30;99.90;;;;;;7394520;19;20225;-76
2023/12/07 00:40:47;;;;;;;1.53;1.10;;;6.20;99.90;;;;;;7394581;19;20154;-75
2023/12/07 00:43:12;;;;;;;1.93;1.40;;;6.20;99.90;;;;;;7392331;19;20178;-76
2023/12/07 00:45:38;;;;;;;1.10;0.97;;;6.20;99.90;;;;;;7393958;19;20178;-76
2023/12/07 00:48:05;;;;;;;1.37;1.17;;;6.20;99.90;;;;;;7395340;19;20146;-76
2023/12/07 00:50:31;;;;;;;1.50;1.37;;;6.10;99.90;;;;;;7396971;19;20460;-75
2023/12/07 00:52:56;;;;;;;1.47;1.37;;;6.20;99.90;;;;;;7396077;19;20139;-75
2023/12/07 00:55:22;;;;;;;1.30;1.00;;;6.30;99.90;;;;;;7397163;19;20584;-76
2023/12/07 00:57:48;;;;;;;2.23;0.87;;;6.20;99.90;;;;;;7396942;19;20163;-75
2023/12/07 01:00:14;;;;;;;1.20;0.93;;;6.00;99.90;;;;;;7396431;19;20130;-76
2023/12/07 01:02:40;;;;;;;1.60;1.50;;;6.20;99.90;;;;;;7396418;19;20154;-76
2023/12/07 01:05:06;;;;;;;1.20;1.10;;;6.20;99.90;;;;;;7396226;19;20768;-76
2023/12/07 01:07:31;;;;;;;2.47;1.57;;;6.30;99.90;;;;;;7395414;19;20247;-77
2023/12/07 01:09:57;;;;;;;1.43;1.33;;;6.30;99.90;;;;;;7396424;19;20142;-75
2023/12/07 01:12:23;;;;;;;1.80;1.60;;;6.20;99.90;;;;;;7394992;19;20971;-76
2023/12/07 01:14:48;;;;;;;1.87;1.30;;;6.30;99.90;;;;;;7393037;19;20138;-76
2023/12/07 01:17:14;;;;;;;2.33;1.50;;;6.30;99.90;;;;;;7391935;19;20218;-76
2023/12/07 01:19:40;;;;;;;1.23;1.13;;;6.30;99.90;;;;;;7393536;19;20163;-76
2023/12/07 01:22:07;;;;;;;1.30;1.10;;;6.30;99.90;;;;;;7394560;19;20194;-75
2023/12/07 01:24:33;;;;;;;1.63;1.17;;;6.40;99.90;;;;;;7395838;19;20131;-74
2023/12/07 01:26:58;;;;;;;1.57;1.13;;;6.40;99.90;;;;;;7394114;19;20146;-75
2023/12/07 01:29:24;;;;;;;1.53;1.00;;;6.40;99.90;;;;;;7394997;19;20149;-77
2023/12/07 01:31:50;;;;;;;1.27;1.03;;;6.50;99.90;;;;;;7395873;19;20604;-76
2023/12/07 01:34:18;;;;;;;2.20;0.93;;;6.30;99.90;;;;;;7395327;19;20152;-76
2023/12/07 01:36:44;;;;;;;1.10;0.87;;;6.30;99.90;;;;;;7394947;19;20158;-76
2023/12/07 01:39:12;;;;;;;1.10;1.00;;;6.10;99.90;;;;;;7393981;19;20175;-75
2023/12/07 01:41:39;;;;;;;1.70;1.10;;;6.10;99.90;;;;;;7393728;19;20150;-76
2023/12/07 01:44:05;;;;;;;0.97;0.90;;;6.30;99.90;;;;;;7394435;19;20215;-76
2023/12/07 01:46:32;;;;;;;0.80;0.70;;;6.30;99.90;;;;;;7389361;19;20159;-76
2023/12/07 01:48:58;;;;;;;1.03;0.80;;;6.20;99.90;;;;;;7389964;19;20215;-76
2023/12/07 01:51:24;;;;;;;1.40;0.83;;;6.20;99.90;;;;;;7394120;19;20130;-76
2023/12/07 01:53:50;;;;;;;1.20;1.07;;;6.30;99.90;;;;;;7388059;19;20475;-76
2023/12/07 01:56:16;;;;;;;0.87;0.77;;;6.40;99.90;;;;;;7384062;19;20131;-75
2023/12/07 01:58:43;;;;;;;1.33;1.10;;;6.40;99.90;;;;;;7383492;19;20144;-76
2023/12/07 02:01:11;;;;;;;2.27;1.43;;;6.50;99.90;;;;;;7392415;19;20127;-76
2023/12/07 02:03:39;;;;;;;1.20;1.10;;;6.40;99.90;;;;;;7378487;19;20535;-77
2023/12/07 02:06:06;;;;;;;0.90;0.87;;;6.50;99.90;;;;;;7377344;19;20127;-76
2023/12/07 02:08:32;;;;;;;1.43;0.83;;;6.40;99.90;;;;;;7394887;19;20146;-77
2023/12/07 02:10:58;;;;;;;1.63;1.27;;;6.40;99.90;;;;;;7380648;19;20161;-76
2023/12/07 02:13:23;;;;;;;1.37;1.27;;;6.30;99.90;;;;;;7389241;19;20131;-75
2023/12/07 02:15:50;;;;;;;1.63;1.33;;;6.30;99.90;;;;;;7389085;19;20173;-76
2023/12/07 02:18:23;;;;;;;0.50;0.50;;;6.10;99.90;;;;;;7391518;19;20143;-76
2023/12/07 02:20:58;;;;;;;2.10;1.60;;;6.00;99.90;;;;;;7377584;19;20137;-76
2023/12/07 02:23:25;;;;;;;1.03;0.93;;;6.10;99.90;;;;;;7377566;19;20205;-75
2023/12/07 02:25:56;;;;;;;0.83;0.77;;;6.10;99.90;;;;;;7384795;19;20142;-75
2023/12/07 02:28:21;;;;;;;0.57;0.57;;;6.30;99.90;;;;;;7392373;19;20509;-76
2023/12/07 02:30:47;;;;;;;0.80;0.80;;;6.40;99.90;;;;;;7393987;19;20147;-75
2023/12/07 02:33:14;;;;;;;1.10;1.00;;;6.40;99.90;;;;;;7388964;19;20529;-76
2023/12/07 02:35:40;;;;;;;2.23;1.60;;;6.30;99.90;;;;;;7389887;19;20515;-75
2023/12/07 02:38:08;;;;;;;1.03;0.70;;;6.10;99.90;;;;;;7388918;19;20126;-75
2023/12/07 02:40:35;;;;;;;1.27;1.17;;;5.80;99.90;;;;;;7390399;19;20135;-75
2023/12/07 02:43:02;;;;;;;1.00;0.90;;;5.50;99.90;;;;;;7386266;19;20181;-75
2023/12/07 02:45:29;;;;;;;1.17;1.07;;;5.50;99.90;;;;;;7388623;19;20543;-76
2023/12/07 02:47:54;;;;;;;1.73;1.40;;;5.50;99.90;;;;;;7385592;19;20130;-76
2023/12/07 02:50:20;;;;;;;2.13;0.80;;;5.50;99.90;;;;;;7385889;19;20738;-76
2023/12/07 02:52:46;;;;;;;0.97;0.90;;;5.40;99.90;;;;;;7380624;19;20229;-75
2023/12/07 02:55:12;;;;;;;1.03;0.70;;;5.10;99.90;;;;;;7382618;19;20568;-76
2023/12/07 02:57:38;;;;;;;1.40;1.03;;;5.40;99.90;;;;;;7385402;19;20133;-75
2023/12/07 03:00:08;;;;;;;1.23;0.70;;;5.60;99.90;;;;;;7388174;19;20788;-76
2023/12/07 03:02:38;;;;;;;1.50;1.33;;;5.40;99.90;;;;;;7390130;19;20147;-76
2023/12/07 03:05:04;;;;;;;1.13;0.83;;;5.30;99.90;;;;;;7383473;19;20145;-75
2023/12/07 03:07:30;;;;;;;1.07;0.90;;;5.20;99.90;;;;;;7390406;19;20137;-75
2023/12/07 03:09:56;;;;;;;1.20;1.10;;;5.40;99.90;;;;;;7381466;19;20210;-76
2023/12/07 03:12:23;;;;;;;1.13;1.03;;;5.70;99.90;;;;;;7388745;19;20151;-74
2023/12/07 03:14:49;;;;;;;1.37;1.20;;;5.60;99.90;;;;;;7385011;19;20146;-75
2023/12/07 03:17:14;;;;;;;1.00;0.90;;;5.80;99.90;;;;;;7385550;19;20234;-75
2023/12/07 03:19:41;;;;;;;1.53;1.03;;;6.00;99.90;;;;;;7387749;19;20584;-76
2023/12/07 03:22:08;;;;;;;1.43;0.90;;;6.00;99.90;;;;;;7383758;19;20163;-75
2023/12/07 03:24:37;;;;;;;1.43;1.03;;;6.10;99.90;;;;;;7388287;19;21001;-75
2023/12/07 03:27:04;;;;;;;0.97;0.87;;;6.10;99.90;;;;;;7385772;19;20143;-75
2023/12/07 03:29:32;;;;;;;1.50;1.13;;;6.10;99.90;;;;;;7387212;19;20142;-75
2023/12/07 03:31:58;;;;;;;0.80;0.80;;;6.10;99.90;;;;;;7386775;19;20150;-76
2023/12/07 03:34:24;;;;;;;1.57;1.10;;;6.10;99.90;;;;;;7383624;19;20650;-75
2023/12/07 03:36:50;;;;;;;0.97;0.93;;;6.00;99.90;;;;;;7389482;19;20145;-75
2023/12/07 03:39:22;;;;;;;1.20;1.00;;;6.00;99.90;;;;;;7391039;19;20151;-76
2023/12/07 03:41:48;;;;;;;1.17;0.80;;;6.00;99.90;;;;;;7390291;19;20154;-74
2023/12/07 03:44:14;;;;;;;2.07;1.47;;;5.90;99.90;;;;;;7387981;19;20165;-75
2023/12/07 03:46:40;;;;;;;1.00;0.90;;;6.00;99.90;;;;;;7382484;19;20141;-75
2023/12/07 03:49:06;;;;;;;1.00;0.90;;;5.90;99.90;;;;;;7381370;19;20194;-75
2023/12/07 03:51:32;;;;;;;1.17;1.00;;;5.90;99.90;;;;;;7388700;19;20134;-75
2023/12/07 03:53:57;;;;;;;0.80;0.80;;;5.80;99.90;;;;;;7389223;19;20142;-75
2023/12/07 03:56:25;;;;;;;1.10;1.00;;;5.70;99.90;;;;;;7388047;19;20160;-76
2023/12/07 03:58:50;;;;;;;0.90;0.90;;;5.70;99.90;;;;;;7387236;19;20486;-75
2023/12/07 04:01:16;;;;;;;1.10;1.00;;;5.70;99.90;;;;;;7387334;19;20135;-75
2023/12/07 04:03:42;;;;;;;1.40;0.90;;;5.70;99.90;;;;;;7392819;19;20165;-75
2023/12/07 04:06:08;;;;;;;0.90;0.80;;;5.60;99.90;;;;;;7395992;19;20146;-76
2023/12/07 04:08:36;;;;;;;1.30;1.20;;;5.60;99.90;;;;;;7390874;19;20154;-76
2023/12/07 04:11:02;;;;;;;1.80;1.20;;;5.60;99.90;;;;;;7392181;19;20209;-74
2023/12/07 04:13:29;;;;;;;0.80;0.80;;;5.70;99.90;;;;;;7387934;19;20546;-75
2023/12/07 04:15:55;;;;;;;1.30;1.20;;;5.80;99.90;;;;;;7392076;19;20126;-75
2023/12/07 04:18:21;;;;;;;1.33;0.90;;;5.70;99.90;;;;;;7394061;19;21378;-75
2023/12/07 04:20:46;;;;;;;1.00;0.83;;;5.70;99.90;;;;;;7394950;19;20139;-75
2023/12/07 04:23:12;;;;;;;0.90;0.87;;;5.60;99.90;;;;;;7395490;19;20582;-75
2023/12/07 04:25:38;;;;;;;1.40;1.20;;;5.60;99.90;;;;;;7395657;19;20147;-76
2023/12/07 04:28:03;;;;;;;0.93;0.87;;;5.40;99.90;;;;;;7385994;19;20153;-75
2023/12/07 04:30:29;;;;;;;1.27;1.17;;;5.40;99.90;;;;;;7398194;19;20127;-76
2023/12/07 04:32:55;;;;;;;1.13;1.03;;;5.30;99.90;;;;;;7394626;19;20131;-75
2023/12/07 04:35:21;;;;;;;1.27;1.10;;;5.90;99.90;;;;;;7394335;19;20151;-76
2023/12/07 04:37:47;;;;;;;1.57;1.13;;;5.20;99.90;;;;;;7387395;19;20143;-76
2023/12/07 04:40:13;;;;;;;2.07;0.97;;;5.30;99.90;;;;;;7390730;19;20459;-76
2023/12/07 04:42:38;;;;;;;1.70;1.60;;;5.30;99.90;;;;;;7390817;19;20233;-75
2023/12/07 04:45:05;;;;;;;2.87;1.23;;;5.30;99.90;;;;;;7384971;19;20603;-76
2023/12/07 04:47:33;;;;;;;1.13;1.03;;;5.30;99.90;;;;;;7393049;19;20130;-76
2023/12/07 04:49:59;;;;;;;1.90;0.80;;;5.30;99.90;;;;;;7389494;19;20603;-76
2023/12/07 04:52:24;;;;;;;1.10;1.00;;;5.30;99.90;;;;;;7390493;19;20135;-75
2023/12/07 04:54:51;;;;;;;1.73;1.30;;;5.30;99.90;;;;;;7390358;19;20129;-75
2023/12/07 04:57:17;;;;;;;1.97;1.40;;;5.30;99.90;;;;;;7396895;19;20137;-76
2023/12/07 04:59:46;;;;;;;1.10;1.00;;;5.30;99.90;;;;;;7393539;19;20209;-75
2023/12/07 05:02:16;;;;;;;0.90;0.90;;;5.30;99.90;;;;;;7392315;19;20141;-75
2023/12/07 05:04:42;;;;;;;1.70;1.23;;;5.30;99.90;;;;;;7394311;19;20143;-76
2023/12/07 05:07:12;;;;;;;1.40;1.00;;;5.20;99.90;;;;;;7390583;19;20201;-75
2023/12/07 05:09:39;;;;;;;1.73;1.00;;;5.10;99.90;;;;;;7382190;19;20134;-76
2023/12/07 05:12:05;;;;;;;1.80;1.33;;;5.00;99.90;;;;;;7389113;19;20155;-75
2023/12/07 05:14:31;;;;;;;1.30;1.20;;;5.10;99.90;;;;;;7389337;19;20198;-75
2023/12/07 05:16:57;;;;;;;2.77;1.53;;;5.10;99.90;;;;;;7397328;19;20141;-73
2023/12/07 05:19:23;;;;;;;1.23;1.03;;;5.00;99.90;;;;;;7395349;19;20126;-76
2023/12/07 05:21:49;;;;;;;1.20;1.10;;;4.90;99.90;;;;;;7394069;19;20163;-75
2023/12/07 05:24:16;;;;;;;1.67;1.37;;;4.90;99.90;;;;;;7386356;19;20486;-76
2023/12/07 05:26:42;;;;;;;1.80;1.47;;;4.80;99.90;;;;;;7380843;19;20138;-75
2023/12/07 05:29:09;;;;;;;1.47;1.07;;;4.80;99.90;;;;;;7390230;19;20536;-78
2023/12/07 05:31:36;;;;;;;0.93;0.93;;;4.90;99.90;;;;;;7394041;19;20130;-75
2023/12/07 05:34:02;;;;;;;1.70;1.43;;;4.80;99.90;;;;;;7386938;19;20138;-75
2023/12/07 05:36:29;;;;;;;0.90;0.90;;;4.90;99.90;;;;;;7388888;19;20131;-75
2023/12/07 05:38:54;;;;;;;1.57;1.43;;;4.90;99.90;;;;;;7389969;19;20127;-75
2023/12/07 05:41:20;;;;;;;0.93;0.90;;;4.70;99.90;;;;;;7386542;19;20146;-74
2023/12/07 05:43:46;;;;;;;1.70;1.27;;;4.60;99.90;;;;;;7387476;19;20186;-75
2023/12/07 05:46:12;;;;;;;1.00;1.00;;;4.60;99.90;;;;;;7385473;19;20150;-76
2023/12/07 05:48:38;;;;;;;1.93;1.70;;;4.60;99.90;;;;;;7387018;19;21990;-75
2023/12/07 05:51:04;;;;;;;1.73;1.40;;;4.70;99.90;;;;;;7387833;19;20144;-75
2023/12/07 05:53:32;;;;;;;1.00;0.87;;;4.70;99.90;;;;;;7391680;19;20631;-75
2023/12/07 05:55:58;;;;;;;1.07;0.97;;;4.60;99.90;;;;;;7388201;19;20163;-75
2023/12/07 05:58:24;;;;;;;1.47;1.27;;;4.70;99.90;;;;;;7391129;19;20135;-77
2023/12/07 06:00:50;;;;;;;2.00;1.63;;;4.70;99.90;;;;;;7382849;19;20167;-76
2023/12/07 06:03:16;;;;;;;1.07;0.87;;;4.80;99.90;;;;;;7393363;19;20138;-75
2023/12/07 06:05:43;;;;;;;2.10;1.90;;;4.60;99.90;;;;;;7393055;19;20130;-76
2023/12/07 06:08:08;;;;;;;1.80;1.20;;;4.60;99.90;;;;;;7386073;19;20601;-75
2023/12/07 06:10:35;;;;;;;1.50;1.40;;;4.60;99.90;;;;;;7390083;19;20135;-74
2023/12/07 06:13:01;;;;;;;1.07;0.83;;;4.60;99.90;;;;;;7384402;19;20150;-77
2023/12/07 06:15:27;;;;;;;2.70;0.97;;;4.70;99.90;;;;;;7394491;19;20491;-75
2023/12/07 06:17:54;;;;;;;0.73;0.73;;;4.70;99.90;;;;;;7390106;19;20165;-75
2023/12/07 06:20:20;;;;;;;1.77;1.40;;;4.70;99.90;;;;;;7389742;19;20146;-75
2023/12/07 06:22:46;;;;;;;1.80;1.10;;;4.70;99.90;;;;;;7377514;19;20179;-76
2023/12/07 06:25:11;;;;;;;1.83;0.80;;;4.70;99.90;;;;;;7387471;19;20149;-76
2023/12/07 06:27:38;;;;;;;1.37;1.10;;;4.70;99.90;;;;;;7384800;19;20146;-74
2023/12/07 06:30:08;;;;;;;1.40;1.30;;;4.70;99.90;;;;;;7387921;19;20152;-76
2023/12/07 06:32:34;;;;;;;2.23;1.40;;;4.70;99.90;;;;;;7389453;19;20142;-75
2023/12/07 06:35:00;;;;;;;1.37;1.03;;;4.60;99.90;;;;;;7393664;19;20220;-76
2023/12/07 06:37:26;;;;;;;1.13;1.03;;;4.70;99.90;;;;;;7391488;19;20151;-76
2023/12/07 06:39:52;;;;;;;2.00;1.30;;;4.70;99.90;;;;;;7394206;19;20167;-78
2023/12/07 06:42:18;;;;;;;1.00;0.90;;;4.70;99.90;;;;;;7389883;19;20242;-77
2023/12/07 06:44:51;;;;;;;1.00;0.87;;;4.90;99.90;;;;;;7382293;19;20171;-76
2023/12/07 06:47:17;;;;;;;1.53;1.03;;;4.70;99.90;;;;;;7383477;19;20222;-76
2023/12/07 06:49:42;;;;;;;1.20;1.00;;;4.70;99.90;;;;;;7382912;19;20138;-76
2023/12/07 06:52:08;;;;;;;2.23;1.63;;;4.50;99.90;;;;;;7387618;19;20142;-76
2023/12/07 06:54:34;;;;;;;1.87;1.30;;;4.40;99.90;;;;;;7370699;19;20142;-75
2023/12/07 06:57:00;;;;;;;1.37;0.77;;;4.30;99.90;;;;;;7369904;19;20461;-76
2023/12/07 06:59:26;;;;;;;1.73;1.17;;;4.00;99.90;;;;;;7384543;19;20206;-75
2023/12/07 07:01:51;;;;;;;1.87;1.50;;;4.00;99.90;;;;;;7371560;19;20139;-75
2023/12/07 07:04:18;;;;;;;1.30;1.20;;;3.90;99.90;;;;;;7373888;19;20628;-76
2023/12/07 07:06:44;;;;;;;1.73;1.10;;;4.10;99.90;;;;;;7377543;19;20150;-76
2023/12/07 07:09:10;;;;;;;1.43;1.30;;;3.90;99.90;;;;;;7387785;19;20131;-75
2023/12/07 07:11:37;;;;;;;1.60;1.27;;;3.50;99.90;;;;;;7372012;19;20149;-75
2023/12/07 07:14:02;;;;;;;2.77;1.73;;;3.70;99.90;;;;;;7373919;19;20547;-75
2023/12/07 07:16:28;;;;;;;1.90;1.45;;;3.50;99.90;;;;;;7375049;19;20431;-73
2023/12/07 07:18:54;;;;;;;1.73;1.17;;;3.60;99.90;;;;;;7390162;19;20138;-75
2023/12/07 07:21:20;;;;;;;2.07;1.47;;;3.70;99.90;;;;;;7378982;19;20131;-74
2023/12/07 07:23:46;;;;;;;2.30;1.37;;;3.80;99.90;;;;;;7369454;19;20150;-74
2023/12/07 07:26:16;;;;;;;1.40;1.10;;;3.90;99.90;;;;;;7367312;19;20150;-74
2023/12/07 07:28:43;;;;;;;1.63;1.53;;;3.90;99.90;;;;;;7369964;19;20142;-75
2023/12/07 07:31:08;;;;;;;1.50;1.40;;;4.10;99.90;;;;;;7369342;19;21518;-75
2023/12/07 07:33:34;;;;;;;2.37;1.67;;;3.80;99.90;;;;;;7378969;19;20137;-74
2023/12/07 07:36:00;;;;;;;1.00;1.00;;;3.80;99.90;;;;;;7387437;19;20183;-74
2023/12/07 07:38:26;;;;;;;1.33;1.23;;;3.80;99.90;;;;;;7398283;19;20146;-75
2023/12/07 07:40:51;;;;;;;1.80;1.53;;;3.60;99.90;;;;;;7382596;19;20578;-74
2023/12/07 07:43:17;;;;;;;1.97;1.60;;;3.70;99.90;;;;;;7390248;19;20166;-75
2023/12/07 07:45:43;;;;;;;1.73;1.33;;;3.50;99.90;;;;;;7382879;19;20177;-75
2023/12/07 07:48:09;;;;;;;1.50;1.27;;;3.60;99.90;;;;;;7385946;19;20159;-75
2023/12/07 07:50:38;;;;;;;1.63;1.53;;;3.70;99.90;;;;;;7394059;19;20168;-75
2023/12/07 07:53:04;;;;;;;1.50;1.40;;;3.90;99.90;;;;;;7377404;19;20191;-75
2023/12/07 07:55:30;;;;;;;1.17;1.07;;;3.70;99.90;;;;;;7382315;19;20139;-75
2023/12/07 07:57:56;;;;;;;4.70;2.37;;;3.70;99.90;;;;;;7384905;19;21444;-75
2023/12/07 08:00:25;;;;;;;3.37;1.90;;;3.60;99.90;;;;;;7389199;19;20142;-76
2023/12/07 08:02:51;;;;;;;1.17;0.97;;;3.90;99.90;;;;;;7393003;19;20130;-75
2023/12/07 08:05:17;;;;;;;3.83;2.33;;;4.10;99.90;;;;;;7393405;19;20222;-76
2023/12/07 08:07:43;;;;;;;1.27;1.17;;;4.20;99.90;;;;;;7377733;19;20135;-75
2023/12/07 08:10:09;;;;;;;2.37;1.67;;;4.20;99.90;;;;;;7378475;19;20131;-75
2023/12/07 08:12:35;;;;;;;1.60;1.33;;;4.10;99.90;;;;;;7394988;19;20142;-75
2023/12/07 08:15:01;;;;;;;2.20;1.40;;;3.80;99.90;;;;;;7383832;19;20157;-75
2023/12/07 08:17:27;;;;;;;1.90;1.43;;;3.70;99.90;;;;;;7393751;19;20131;-74
2023/12/07 08:19:53;;;;;;;1.27;1.17;;;3.80;99.90;;;;;;7394594;19;20160;-74
2023/12/07 08:22:20;;;;;;;1.50;1.27;;;3.80;99.90;;;;;;7384021;19;20187;-75
2023/12/07 08:24:45;;;;;;;2.33;1.20;;;4.10;99.90;;;;;;7378431;19;20135;-74
2023/12/07 08:27:11;;;;;;;1.40;1.20;;;4.40;99.90;;;;;;7373840;19;20135;-75
2023/12/07 08:29:38;;;;;;;1.50;1.40;;;4.40;99.90;;;;;;7391930;19;20134;-75
2023/12/07 08:32:04;;;;;;;1.83;1.67;;;4.50;99.90;;;;;;7377823;19;20146;-76
2023/12/07 08:34:30;;;;;;;3.07;2.27;;;4.60;99.90;;;;;;7374059;19;20166;-74
2023/12/07 08:36:57;;;;;;;2.20;1.40;;;4.40;99.90;;;;;;7375132;19;20154;-74
2023/12/07 08:39:23;;;;;;;1.80;1.10;;;4.30;99.90;;;;;;7392491;19;20247;-74
2023/12/07 08:41:48;;;;;;;2.67;1.70;;;4.40;99.90;;;;;;7395459;19;20229;-74
2023/12/07 08:44:14;;;;;;;1.40;1.17;;;4.50;99.90;;;;;;7382527;19;20151;-73
2023/12/07 08:46:41;;;;;;;2.80;2.27;;;4.30;99.90;;;;;;7370890;19;20156;-74
2023/12/07 08:49:07;;;;;;;2.13;1.57;;;4.40;99.90;;;;;;7373117;19;20198;-75
2023/12/07 08:51:33;;;;;;;2.47;1.40;;;4.30;99.90;;;;;;7369171;19;20633;-75
2023/12/07 08:53:59;;;;;;;1.70;1.33;;;4.20;99.90;;;;;;7374612;19;20143;-75
2023/12/07 08:56:25;;;;;;;1.83;1.33;;;4.00;99.90;;;;;;7388814;19;20277;-75
2023/12/07 08:58:51;;;;;;;1.90;1.20;;;4.10;99.90;;;;;;7387521;19;20150;-75
2023/12/07 09:01:17;;;;;;;2.50;1.80;;;4.00;99.90;;;;;;7393122;19;20138;-76
2023/12/07 09:03:43;;;;;;;1.57;1.30;;;4.20;99.90;;;;;;7394579;19;20134;-75
2023/12/07 09:06:08;;;;;;;1.33;1.23;;;4.30;99.90;;;;;;7382213;19;20130;-75
2023/12/07 09:08:34;;;;;;;1.93;1.63;;;4.30;99.90;;;;;;7394512;19;20471;-75
2023/12/07 09:11:00;;;;;;;1.77;1.30;;;4.40;99.90;;;;;;7393238;19;20163;-76
2023/12/07 09:13:26;;;;;;;1.77;1.60;;;4.40;99.90;;;;;;7395631;19;20167;-76
2023/12/07 09:15:53;;;;;;;2.30;1.50;;;4.20;99.90;;;;;;7395207;19;21568;-75
2023/12/07 09:18:19;;;;;;;1.97;1.77;;;4.20;99.90;;;;;;7396379;19;20149;-74
2023/12/07 09:20:47;;;;;;;2.73;1.90;;;4.60;99.90;;;;;;7396088;19;20134;-75
2023/12/07 09:23:17;;;;;;;3.00;1.87;;;4.80;99.90;;;;;;7385705;19;20150;-74
2023/12/07 09:25:43;;;;;;;2.10;1.87;;;5.00;99.90;;;;;;7393252;19;20210;-74
2023/12/07 09:28:09;;;;;;;1.97;1.83;;;5.00;99.90;;;;;;7395682;19;20131;-73
2023/12/07 09:30:35;;;;;;;2.30;2.00;;;5.10;99.90;;;;;;7395465;19;20158;-74
2023/12/07 09:33:04;;;;;;;2.10;2.00;;;5.10;99.90;;;;;;7393882;19;20131;-73
2023/12/07 09:35:30;;;;;;;2.13;1.83;;;5.20;99.90;;;;;;7393179;19;20222;-74
2023/12/07 09:37:55;;;;;;;2.00;1.70;;;4.90;99.90;;;;;;7395721;19;20210;-74
2023/12/07 09:40:25;;;;;;;2.13;1.70;;;4.90;99.90;;;;;;7392410;19;20154;-74
2023/12/07 09:42:51;;;;;;;2.47;1.97;;;4.90;99.90;;;;;;7389993;19;20143;-72
2023/12/07 09:45:19;;;;;;;2.07;1.63;;;4.80;99.90;;;;;;7390651;19;20162;-73
2023/12/07 09:47:52;;;;;;;2.27;1.80;;;4.80;99.90;;;;;;7395316;19;20172;-74
2023/12/07 09:50:21;;;;;;;1.67;1.50;;;4.90;99.90;;;;;;7396281;19;20146;-74
2023/12/07 09:52:56;;;;;;;3.30;2.67;;;5.10;99.90;;;;;;7394374;19;20135;-77
2023/12/07 09:55:22;;;;;;;5.47;3.97;;;4.90;99.90;;;;;;7394501;19;20142;-75
2023/12/07 09:57:49;;;;;;;2.20;2.00;;;5.10;99.90;;;;;;7392974;19;20187;-74
2023/12/07 10:00:15;;;;;;;3.03;2.17;;;5.20;99.90;;;;;;7390618;19;20154;-73
2023/12/07 10:02:45;;;;;;;1.90;1.70;;;5.20;99.90;;;;;;7392159;19;20276;-73
2023/12/07 10:05:16;;;;;;;3.90;3.50;;;5.20;99.90;;;;;;7394498;19;20565;-75
2023/12/07 10:07:50;;;;;;;3.07;2.17;;;5.20;99.90;;;;;;7392037;19;20145;-75
2023/12/07 10:10:18;;;;;;;2.60;2.07;;;5.20;99.90;;;;;;7391836;19;20158;-75
2023/12/07 10:12:59;;;;;;;1.90;1.77;;;5.30;99.90;;;;;;7392888;19;20156;-74
2023/12/07 10:15:25;;;;;;;2.17;1.90;;;5.00;99.90;;;;;;7391581;19;20142;-74
2023/12/07 10:17:59;;;;;;;3.17;2.03;;;4.70;99.90;;;;;;7394689;19;20155;-75
2023/12/07 10:20:30;;;;;;;2.20;1.60;;;4.60;99.90;;;;;;7393714;19;20134;-75
2023/12/07 10:23:07;;;;;;;3.53;2.93;;;4.70;99.90;;;;;;7393651;19;20126;-73
2023/12/07 10:25:36;;;;;;;2.53;1.90;;;4.80;99.90;;;;;;7394940;19;20145;-76
2023/12/07 10:28:07;;;;;;;3.97;2.70;;;4.70;99.90;;;;;;7396087;19;20196;-75
2023/12/07 10:30:34;;;;;;;2.50;2.30;;;5.10;99.90;;;;;;7393103;19;20240;-74
2023/12/07 10:33:07;;;;;;;4.50;2.03;;;5.50;99.90;;;;;;7391462;19;20131;-76
2023/12/07 10:35:33;;;;;;;4.03;2.70;;;5.70;99.90;;;;;;7398775;19;20134;-75
2023/12/07 10:37:59;;;;;;;1.30;1.20;;;6.00;99.90;;;;;;7397576;19;20594;-75
2023/12/07 10:40:25;;;;;;;2.50;1.70;;;6.10;99.90;;;;;;7397607;19;20234;-78
2023/12/07 10:42:56;;;;;;;3.13;2.63;;;6.20;99.90;;;;;;7400016;19;20174;-77
2023/12/07 10:45:29;;;;;;;2.43;1.67;;;6.20;99.90;;;;;;7393604;19;20155;-74
2023/12/07 10:48:07;;;;;;;1.57;1.47;;;6.30;99.90;;;;;;7392727;19;20135;-76
2023/12/07 10:50:41;;;;;;;1.90;1.70;;;6.30;99.90;;;;;;7391486;19;20146;-74
2023/12/07 10:53:20;;;;;;;1.13;1.03;;;6.30;99.90;;;;;;7388691;19;20138;-75
2023/12/07 10:55:52;;;;;;;4.27;2.13;;;6.40;99.90;;;;;;7388744;19;20150;-75
2023/12/07 10:58:19;;;;;;;2.07;1.90;;;6.50;99.90;;;;;;7380628;19;20138;-75
2023/12/07 11:00:48;;;;;;;2.23;1.70;;;6.50;99.90;;;;;;7387492;19;20320;-74
2023/12/07 11:03:17;;;;;;;2.00;1.70;;;6.50;99.90;;;;;;7392837;19;20134;-73
2023/12/07 11:05:47;;;;;;;2.53;1.87;;;6.60;99.90;;;;;;7387953;19;20611;-74
2023/12/07 11:08:28;;;;;;;1.97;1.70;;;6.60;99.90;;;;;;7388386;19;20475;-73
2023/12/07 11:11:23;;;;;;;1.67;1.57;;;6.50;99.90;;;;;;7386634;19;20139;-74
2023/12/07 11:14:03;;;;;;;1.27;1.03;;;6.60;99.90;;;;;;7388749;19;20556;-75
2023/12/07 11:16:52;;;;;;;1.83;1.50;;;6.70;99.90;;;;;;7392431;19;20159;-74
2023/12/07 11:19:32;;;;;;;2.20;1.40;;;6.80;99.90;;;;;;7388559;19;20233;-75
2023/12/07 11:22:12;;;;;;;2.20;1.53;;;6.80;99.90;;;;;;7390379;19;20138;-74
2023/12/07 11:24:38;;;;;;;1.23;0.97;;;6.80;99.90;;;;;;7392303;19;20146;-74
2023/12/07 11:27:04;;;;;;;2.53;1.67;;;6.70;99.90;;;;;;7392308;19;20159;-74
2023/12/07 11:29:31;;;;;;;2.93;1.20;;;6.70;99.90;;;;;;7394114;19;20138;-76
2023/12/07 11:32:04;;;;;;;2.17;1.83;;;6.80;99.90;;;;;;7390274;19;20163;-74
2023/12/07 11:34:40;;;;;;;3.00;1.70;;;6.80;99.90;;;;;;7388996;19;20137;-74
2023/12/07 11:37:07;;;;;;;1.47;1.17;;;6.90;99.90;;;;;;7390399;19;20130;-78
2023/12/07 11:39:46;;;;;;;3.03;1.30;;;6.90;99.90;;;;;;7389174;19;20142;-75
2023/12/07 11:42:17;;;;;;;1.43;1.33;;;6.90;99.90;;;;;;7389971;19;20275;-75
2023/12/07 11:44:48;;;;;;;2.60;1.10;;;7.20;99.90;;;;;;7386558;19;20174;-75
2023/12/07 11:47:19;;;;;;;1.30;1.13;;;7.30;99.90;;;;;;7381846;19;20139;-73
2023/12/07 11:49:46;;;;;;;1.07;0.97;;;7.40;99.90;;;;;;7386682;19;20141;-75
2023/12/07 11:52:19;;;;;;;1.23;1.13;;;7.20;99.90;;;;;;7389648;19;20138;-77
2023/12/07 11:54:46;;;;;;;3.00;1.60;;;7.40;99.90;;;;;;7383268;19;20500;-75
2023/12/07 11:57:15;;;;;;;1.23;1.10;;;7.70;99.90;;;;;;7380851;19;20161;-74
2023/12/07 11:59:43;;;;;;;1.17;1.07;;;8.00;99.90;;;;;;7389272;19;20137;-75
2023/12/07 12:02:13;;;;;;;0.73;0.73;;;8.00;99.90;;;;;;7384355;19;20154;-74
2023/12/07 12:04:40;;;;;;;1.07;0.90;;;8.20;99.90;;;;;;7385031;19;20499;-74
2023/12/07 12:07:06;;;;;;;1.00;0.90;;;8.40;99.90;;;;;;7385109;19;20145;-74
2023/12/07 12:09:34;;;;;;;7.70;1.60;;;8.40;99.90;;;;;;7390009;19;20127;-73
2023/12/07 12:12:00;;;;;;;1.87;1.60;;;8.20;99.90;;;;;;7387855;19;20163;-76
2023/12/07 12:14:28;;;;;;;2.47;2.13;;;8.30;99.90;;;;;;7379104;19;20145;-74
2023/12/07 12:16:55;;;;;;;1.87;0.93;;;8.20;99.90;;;;;;7380970;19;20150;-74
2023/12/07 12:19:23;;;;;;;1.30;1.20;;;8.20;99.90;;;;;;7384259;19;20156;-74
2023/12/07 12:21:48;;;;;;;1.67;1.40;;;8.10;99.90;;;;;;7387838;19;20202;-74
2023/12/07 12:24:14;;;;;;;1.37;1.27;;;8.10;99.90;;;;;;7394316;19;20138;-75
2023/12/07 12:26:42;;;;;;;1.87;0.83;;;8.00;99.90;;;;;;7390986;19;20197;-75
2023/12/07 12:29:08;;;;;;;1.63;1.33;;;8.00;99.90;;;;;;7388415;19;20138;-76
2023/12/07 12:31:38;;;;;;;1.60;1.20;;;8.00;99.90;;;;;;7393233;19;20134;-74
2023/12/07 12:34:08;;;;;;;1.47;1.37;;;8.10;99.90;;;;;;7389271;19;20585;-74
2023/12/07 12:36:34;;;;;;;2.27;1.37;;;8.20;99.90;;;;;;7390176;19;20138;-74
2023/12/07 12:39:02;;;;;;;1.10;1.00;;;8.10;99.90;;;;;;7391403;19;20136;-74
2023/12/07 12:41:30;;;;;;;0.87;0.80;;;8.20;99.90;;;;;;7394234;19;20134;-74
2023/12/07 12:43:56;;;;;;;1.20;1.10;;;8.30;99.90;;;;;;7389293;19;20171;-74
2023/12/07 12:46:22;;;;;;;0.80;0.80;;;8.50;99.90;;;;;;7387225;19;20131;-74
2023/12/07 12:48:58;;;;;;;1.20;0.83;;;8.60;99.90;;;;;;7390099;19;20123;-74
2023/12/07 12:51:25;;;;;;;1.10;0.93;;;8.30;99.90;;;;;;7390753;19;20132;-74
2023/12/07 12:53:52;;;;;;;2.07;1.50;;;8.20;99.90;;;;;;7396277;19;20146;-74
2023/12/07 12:56:20;;;;;;;1.13;1.00;;;8.30;99.90;;;;;;7393751;19;20186;-75
2023/12/07 12:58:46;;;;;;;1.03;0.90;;;8.40;99.90;;;;;;7386172;19;20484;-73